Time;durP1;ratioP1;P1;durP2;ratioP2;P2;SDS_P1;SDS_P2;PMS_P1;PMS_P2;Temp;Humidity;BMP_temperature;BMP_pressure;BME280_temperature;BME280_humidity;BME280_pressure;Samples;Min_cycle;Max_cycle;Signal;HPM_P1;HPM_P2
2023/04/06 00:00:12;;;;;;;15.85;5.22;;;;;;;;;;5089450;28;20082;-69
2023/04/06 00:02:37;;;;;;;13.90;4.80;;;;;;;;;;5099105;28;20137;-69
2023/04/06 00:05:02;;;;;;;11.27;4.38;;;;;;;;;;5087699;28;20028;-69
2023/04/06 00:07:29;;;;;;;8.70;4.90;;;;;;;;;;5078737;28;20417;-70
2023/04/06 00:09:54;;;;;;;11.63;4.97;;;;;;;;;;5084542;28;20051;-69
2023/04/06 00:12:20;;;;;;;7.55;4.07;;;;;;;;;;5087286;28;20020;-69
2023/04/06 00:14:45;;;;;;;8.25;4.00;;;;;;;;;;5087715;28;20046;-70
2023/04/06 00:17:11;;;;;;;12.52;4.25;;;;;;;;;;5087087;28;20019;-69
2023/04/06 00:19:36;;;;;;;11.68;5.25;;;;;;;;;;5085690;28;20100;-68
2023/04/06 00:22:02;;;;;;;17.40;6.90;;;;;;;;;;5087478;28;20027;-70
2023/04/06 00:24:27;;;;;;;12.23;5.47;;;;;;;;;;5087320;28;20465;-69
2023/04/06 00:26:52;;;;;;;14.27;5.82;;;;;;;;;;5087283;28;20405;-67
2023/04/06 00:29:18;;;;;;;17.95;6.93;;;;;;;;;;5086618;28;20107;-68
2023/04/06 00:31:43;;;;;;;13.65;5.50;;;;;;;;;;5073651;28;20335;-66
2023/04/06 00:34:09;;;;;;;14.07;6.00;;;;;;;;;;5086924;28;20028;-69
2023/04/06 00:36:34;;;;;;;13.70;5.68;;;;;;;;;;5086394;28;20020;-70
2023/04/06 00:39:00;;;;;;;13.20;5.85;;;;;;;;;;5086905;28;20043;-71
2023/04/06 00:41:25;;;;;;;14.73;6.78;;;;;;;;;;5087128;28;20212;-68
2023/04/06 00:43:50;;;;;;;15.65;7.13;;;;;;;;;;5086906;28;20086;-68
2023/04/06 00:46:16;;;;;;;15.73;5.40;;;;;;;;;;5086892;28;20020;-68
2023/04/06 00:48:41;;;;;;;12.00;4.30;;;;;;;;;;5086601;28;20119;-68
2023/04/06 00:51:06;;;;;;;13.77;5.00;;;;;;;;;;5087152;28;20016;-69
2023/04/06 00:53:31;;;;;;;11.50;5.35;;;;;;;;;;5087094;28;20020;-67
2023/04/06 00:55:56;;;;;;;9.02;4.53;;;;;;;;;;5073727;28;20020;-68
2023/04/06 00:58:22;;;;;;;9.95;4.93;;;;;;;;;;5086674;28;20449;-67
2023/04/06 01:00:47;;;;;;;16.63;5.47;;;;;;;;;;5083960;28;20400;-67
2023/04/06 01:03:13;;;;;;;13.65;5.53;;;;;;;;;;5086558;28;20016;-67
2023/04/06 01:05:40;;;;;;;12.82;4.40;;;;;;;;;;5081816;28;20137;-69
2023/04/06 01:08:06;;;;;;;12.95;6.07;;;;;;;;;;5075433;28;20025;-68
2023/04/06 01:10:31;;;;;;;8.60;4.50;;;;;;;;;;5087083;28;20028;-66
2023/04/06 01:12:56;;;;;;;11.98;4.65;;;;;;;;;;5087037;28;20108;-68
2023/04/06 01:15:22;;;;;;;12.35;4.88;;;;;;;;;;5086667;28;20115;-66
2023/04/06 01:17:47;;;;;;;10.00;4.30;;;;;;;;;;5085756;28;20043;-68
2023/04/06 01:20:13;;;;;;;8.40;4.65;;;;;;;;;;5086590;28;20035;-67
2023/04/06 01:22:38;;;;;;;10.80;4.80;;;;;;;;;;5090336;28;20020;-68
2023/04/06 01:25:03;;;;;;;9.35;4.10;;;;;;;;;;5090770;28;20062;-67
2023/04/06 01:27:29;;;;;;;12.73;5.10;;;;;;;;;;5090118;28;20035;-69
2023/04/06 01:29:55;;;;;;;10.98;4.50;;;;;;;;;;5085801;28;20016;-69
2023/04/06 01:32:20;;;;;;;8.65;4.40;;;;;;;;;;5089738;28;20074;-68
2023/04/06 01:34:45;;;;;;;12.82;4.63;;;;;;;;;;5090735;28;20028;-71
2023/04/06 01:37:11;;;;;;;8.38;4.63;;;;;;;;;;5089559;28;20408;-68
2023/04/06 01:39:36;;;;;;;8.57;4.72;;;;;;;;;;5087114;28;20028;-69
2023/04/06 01:42:01;;;;;;;12.88;4.43;;;;;;;;;;5109344;22;20131;-69
2023/04/06 01:44:26;;;;;;;9.48;4.75;;;;;;;;;;5091002;28;20059;-69
2023/04/06 01:46:52;;;;;;;12.95;5.25;;;;;;;;;;5091496;28;20596;-69
2023/04/06 01:49:17;;;;;;;9.77;5.32;;;;;;;;;;5091787;28;20050;-68
2023/04/06 01:51:42;;;;;;;13.05;4.28;;;;;;;;;;5106487;28;20027;-69
2023/04/06 01:54:07;;;;;;;13.13;4.72;;;;;;;;;;5110557;28;20120;-68
2023/04/06 01:56:33;;;;;;;12.10;4.70;;;;;;;;;;5112026;28;20070;-68
2023/04/06 01:58:58;;;;;;;8.13;4.07;;;;;;;;;;5112781;28;20046;-71
2023/04/06 02:01:23;;;;;;;11.52;4.68;;;;;;;;;;5112149;28;20022;-69
2023/04/06 02:03:49;;;;;;;8.25;4.32;;;;;;;;;;5110836;28;20491;-67
2023/04/06 02:06:14;;;;;;;9.80;4.78;;;;;;;;;;5111602;28;20385;-67
2023/04/06 02:08:39;;;;;;;11.10;5.28;;;;;;;;;;5098479;28;20097;-69
2023/04/06 02:11:05;;;;;;;16.58;5.38;;;;;;;;;;5113033;28;20494;-69
2023/04/06 02:13:30;;;;;;;11.75;5.07;;;;;;;;;;5112684;28;20077;-69
2023/04/06 02:15:55;;;;;;;7.95;4.45;;;;;;;;;;5112323;28;20384;-69
2023/04/06 02:18:21;;;;;;;8.73;4.18;;;;;;;;;;5092545;28;20506;-70
2023/04/06 02:20:46;;;;;;;13.88;4.97;;;;;;;;;;5111979;28;20090;-69
2023/04/06 02:23:11;;;;;;;18.00;5.03;;;;;;;;;;5111907;28;20392;-69
2023/04/06 02:25:36;;;;;;;10.00;4.43;;;;;;;;;;5100560;28;20074;-69
2023/04/06 02:28:02;;;;;;;10.95;4.47;;;;;;;;;;5107867;28;20024;-66
2023/04/06 02:30:28;;;;;;;11.80;4.70;;;;;;;;;;5100069;28;20103;-66
2023/04/06 02:32:54;;;;;;;9.50;4.50;;;;;;;;;;5106931;28;20023;-68
2023/04/06 02:35:19;;;;;;;10.18;5.00;;;;;;;;;;5111546;28;20024;-67
2023/04/06 02:37:44;;;;;;;8.35;4.25;;;;;;;;;;5110716;28;20757;-69
2023/04/06 02:40:10;;;;;;;10.35;4.45;;;;;;;;;;5103657;28;20051;-69
2023/04/06 02:42:35;;;;;;;10.25;4.10;;;;;;;;;;5108651;28;20485;-70
2023/04/06 02:45:00;;;;;;;19.35;4.78;;;;;;;;;;5111750;28;20027;-69
2023/04/06 02:47:26;;;;;;;11.30;4.40;;;;;;;;;;5109869;28;20481;-68
2023/04/06 02:49:51;;;;;;;12.20;5.00;;;;;;;;;;5112539;28;20012;-67
2023/04/06 02:52:17;;;;;;;9.75;4.43;;;;;;;;;;5111493;28;20559;-67
2023/04/06 02:54:43;;;;;;;9.60;4.80;;;;;;;;;;5089627;28;20012;-69
2023/04/06 02:57:08;;;;;;;9.60;4.38;;;;;;;;;;5108272;28;20064;-68
2023/04/06 02:59:33;;;;;;;9.85;4.60;;;;;;;;;;5110920;28;20027;-68
2023/04/06 03:01:58;;;;;;;7.85;3.70;;;;;;;;;;5110928;28;20580;-69
2023/04/06 03:04:25;;;;;;;9.18;4.50;;;;;;;;;;5110563;28;20023;-68
2023/04/06 03:06:50;;;;;;;11.73;4.82;;;;;;;;;;5107203;28;20019;-68
2023/04/06 03:09:19;;;;;;;9.65;4.40;;;;;;;;;;5100547;28;20012;-68
2023/04/06 03:11:44;;;;;;;;;;;;;;;;;;5112259;28;20011;-68
2023/04/06 03:14:10;;;;;;;10.50;4.70;;;;;;;;;;5111063;28;19908;-69
2023/04/06 03:16:35;;;;;;;9.05;5.15;;;;;;;;;;5109984;28;20047;-69
2023/04/06 03:19:00;;;;;;;13.30;4.60;;;;;;;;;;5109796;28;20019;-67
2023/04/06 03:21:26;;;;;;;13.00;5.38;;;;;;;;;;5110748;28;20020;-68
2023/04/06 03:23:51;;;;;;;9.35;4.68;;;;;;;;;;5110532;28;20477;-69
2023/04/06 03:26:16;;;;;;;13.73;5.03;;;;;;;;;;5110194;28;20042;-68
2023/04/06 03:28:42;;;;;;;20.38;5.68;;;;;;;;;;5110598;28;20015;-69
2023/04/06 03:31:07;;;;;;;10.18;4.60;;;;;;;;;;5097273;28;20012;-70
2023/04/06 03:33:32;;;;;;;11.70;4.85;;;;;;;;;;5110088;28;20027;-68
2023/04/06 03:35:57;;;;;;;11.43;4.43;;;;;;;;;;5110114;28;20103;-68
2023/04/06 03:38:22;;;;;;;14.05;4.75;;;;;;;;;;5109678;28;20019;-68
2023/04/06 03:40:48;;;;;;;11.73;5.45;;;;;;;;;;5076909;28;20070;-69
2023/04/06 03:43:13;;;;;;;10.45;5.47;;;;;;;;;;5110241;28;20028;-68
2023/04/06 03:45:39;;;;;;;14.25;5.05;;;;;;;;;;5110141;28;20019;-69
2023/04/06 03:48:05;;;;;;;8.68;4.70;;;;;;;;;;5108890;28;20019;-68
2023/04/06 03:50:30;;;;;;;14.82;5.32;;;;;;;;;;5110061;28;20012;-67
2023/04/06 03:52:55;;;;;;;10.40;4.70;;;;;;;;;;5109569;28;20496;-68
2023/04/06 03:55:20;;;;;;;11.32;5.13;;;;;;;;;;5110701;28;20502;-68
2023/04/06 03:57:46;;;;;;;11.82;4.93;;;;;;;;;;5109542;28;20106;-68
2023/04/06 04:00:11;;;;;;;10.25;5.05;;;;;;;;;;5110035;28;20019;-68
2023/04/06 04:02:37;;;;;;;14.57;5.13;;;;;;;;;;5109623;28;20027;-68
2023/04/06 04:05:02;;;;;;;11.27;5.40;;;;;;;;;;5110019;28;20573;-66
2023/04/06 04:07:27;;;;;;;9.93;5.45;;;;;;;;;;5109060;28;20539;-68
2023/04/06 04:09:53;;;;;;;13.07;5.63;;;;;;;;;;5101755;28;20020;-68
2023/04/06 04:12:18;;;;;;;18.45;4.97;;;;;;;;;;5110492;28;20026;-67
2023/04/06 04:14:43;;;;;;;13.50;5.57;;;;;;;;;;5110116;28;20069;-66
2023/04/06 04:17:09;;;;;;;14.65;6.43;;;;;;;;;;5109110;28;20381;-68
2023/04/06 04:19:34;;;;;;;9.77;4.80;;;;;;;;;;5109583;28;20377;-69
2023/04/06 04:21:59;;;;;;;12.77;5.10;;;;;;;;;;5107553;28;20420;-69
2023/04/06 04:24:24;;;;;;;12.18;5.55;;;;;;;;;;5109332;28;20708;-70
2023/04/06 04:26:50;;;;;;;12.15;5.43;;;;;;;;;;5108397;28;20082;-68
2023/04/06 04:29:16;;;;;;;13.15;5.75;;;;;;;;;;5104706;28;20103;-69
2023/04/06 04:31:41;;;;;;;12.68;5.50;;;;;;;;;;5096850;28;20019;-68
2023/04/06 04:34:06;;;;;;;14.40;5.63;;;;;;;;;;5103976;28;20039;-70
2023/04/06 04:36:32;;;;;;;13.27;6.57;;;;;;;;;;5108511;28;20028;-68
2023/04/06 04:38:57;;;;;;;12.60;6.00;;;;;;;;;;5105870;28;20381;-69
2023/04/06 04:41:23;;;;;;;10.85;5.70;;;;;;;;;;5097630;28;20425;-69
2023/04/06 04:43:48;;;;;;;20.90;6.55;;;;;;;;;;5103774;28;20372;-68
2023/04/06 04:46:13;;;;;;;17.73;6.35;;;;;;;;;;5107252;28;20035;-69
2023/04/06 04:48:38;;;;;;;10.35;5.47;;;;;;;;;;5103200;28;20016;-68
2023/04/06 04:51:04;;;;;;;14.52;5.78;;;;;;;;;;5109133;28;20107;-68
2023/04/06 04:53:29;;;;;;;14.35;5.03;;;;;;;;;;5109987;28;20054;-68
2023/04/06 04:55:55;;;;;;;11.60;6.15;;;;;;;;;;5110821;28;20054;-68
2023/04/06 04:58:20;;;;;;;16.15;6.32;;;;;;;;;;5099929;28;20444;-68
2023/04/06 05:00:46;;;;;;;24.95;6.00;;;;;;;;;;5108499;28;20050;-67
2023/04/06 05:03:18;;;;;;;13.52;6.43;;;;;;;;;;5112311;28;20073;-68
2023/04/06 05:05:43;;;;;;;13.88;5.60;;;;;;;;;;5101360;28;20024;-69
2023/04/06 05:08:08;;;;;;;10.88;6.03;;;;;;;;;;5105706;28;20431;-70
2023/04/06 05:10:34;;;;;;;11.25;5.30;;;;;;;;;;5113617;28;20246;-69
2023/04/06 05:12:59;;;;;;;13.00;6.40;;;;;;;;;;5111190;28;20027;-68
2023/04/06 05:15:25;;;;;;;12.60;6.22;;;;;;;;;;5112656;28;20024;-69
2023/04/06 05:17:50;;;;;;;13.85;5.45;;;;;;;;;;5111784;28;20098;-70
2023/04/06 05:20:15;;;;;;;10.98;6.25;;;;;;;;;;5112571;28;20065;-71
2023/04/06 05:22:41;;;;;;;16.65;7.38;;;;;;;;;;5090617;28;20508;-66
2023/04/06 05:25:07;;;;;;;17.88;6.75;;;;;;;;;;5112566;28;20029;-68
2023/04/06 05:27:32;;;;;;;16.92;7.38;;;;;;;;;;5112519;28;20056;-68
2023/04/06 05:29:57;;;;;;;15.55;7.45;;;;;;;;;;5106660;28;20069;-68
2023/04/06 05:32:24;;;;;;;15.98;7.30;;;;;;;;;;5099480;28;20020;-68
2023/04/06 05:34:49;;;;;;;18.35;6.80;;;;;;;;;;5112547;28;20077;-70
2023/04/06 05:37:15;;;;;;;18.10;7.47;;;;;;;;;;5112306;28;20023;-69
2023/04/06 05:39:40;;;;;;;20.30;7.03;;;;;;;;;;5111658;28;20023;-68
2023/04/06 05:42:06;;;;;;;17.27;7.45;;;;;;;;;;5105241;28;20439;-68
2023/04/06 05:44:31;;;;;;;27.30;7.88;;;;;;;;;;5111559;28;20026;-69
2023/04/06 05:46:56;;;;;;;15.77;7.22;;;;;;;;;;5103970;28;20096;-69
2023/04/06 05:49:22;;;;;;;17.38;7.32;;;;;;;;;;5111317;28;20032;-69
2023/04/06 05:51:47;;;;;;;18.67;6.05;;;;;;;;;;5102037;28;20097;-69
2023/04/06 05:54:12;;;;;;;18.85;6.65;;;;;;;;;;5101612;28;20023;-69
2023/04/06 05:56:37;;;;;;;17.85;6.07;;;;;;;;;;5111406;28;20035;-69
2023/04/06 05:59:03;;;;;;;12.98;5.40;;;;;;;;;;5112727;28;20020;-69
2023/04/06 06:01:28;;;;;;;14.30;6.05;;;;;;;;;;5109668;28;20031;-69
2023/04/06 06:03:54;;;;;;;11.23;5.68;;;;;;;;;;5111759;28;20519;-69
2023/04/06 06:06:19;;;;;;;12.77;5.82;;;;;;;;;;5103265;28;20366;-68
2023/04/06 06:08:44;;;;;;;21.98;6.68;;;;;;;;;;5093189;28;20020;-69
2023/04/06 06:11:10;;;;;;;25.60;6.35;;;;;;;;;;5106076;28;20493;-66
2023/04/06 06:13:35;;;;;;;12.23;5.95;;;;;;;;;;5095337;28;20035;-69
2023/04/06 06:16:04;;;;;;;14.13;5.95;;;;;;;;;;5111697;27;20023;-69
2023/04/06 06:18:30;;;;;;;;;;;;;;;;;;5107927;28;20023;-68
2023/04/06 06:20:55;;;;;;;11.55;5.32;;;;;;;;;;5110232;28;19914;-69
2023/04/06 06:23:21;;;;;;;13.32;5.68;;;;;;;;;;5108166;28;20063;-68
2023/04/06 06:25:46;;;;;;;13.52;6.07;;;;;;;;;;5111955;28;20012;-69
2023/04/06 06:28:11;;;;;;;15.85;5.38;;;;;;;;;;5098923;28;20016;-69
2023/04/06 06:30:36;;;;;;;17.25;5.40;;;;;;;;;;5101904;28;20108;-69
2023/04/06 06:33:03;;;;;;;14.25;5.90;;;;;;;;;;5098653;28;20014;-68
2023/04/06 06:35:28;;;;;;;15.13;5.78;;;;;;;;;;5107750;28;20666;-68
2023/04/06 06:37:53;;;;;;;17.13;5.35;;;;;;;;;;5092329;28;20522;-69
2023/04/06 06:40:19;;;;;;;8.93;4.60;;;;;;;;;;5105096;28;20049;-68
2023/04/06 06:42:45;;;;;;;17.67;4.60;;;;;;;;;;5104719;28;20146;-68
2023/04/06 06:45:10;;;;;;;14.73;6.05;;;;;;;;;;5106867;28;20103;-66
2023/04/06 06:47:35;;;;;;;10.88;5.28;;;;;;;;;;5108671;28;20020;-68
2023/04/06 06:50:02;;;;;;;11.05;5.30;;;;;;;;;;5097977;28;20474;-67
2023/04/06 06:52:28;;;;;;;15.90;5.15;;;;;;;;;;5110819;28;20023;-68
2023/04/06 06:54:54;;;;;;;11.32;4.68;;;;;;;;;;5109487;28;20085;-69
2023/04/06 06:57:19;;;;;;;14.45;5.82;;;;;;;;;;5110631;28;20714;-68
2023/04/06 06:59:44;;;;;;;21.52;5.82;;;;;;;;;;5100082;28;20362;-68
2023/04/06 07:02:09;;;;;;;12.68;4.97;;;;;;;;;;5104141;28;20427;-69
2023/04/06 07:04:34;;;;;;;8.32;4.35;;;;;;;;;;5106241;28;20051;-68
2023/04/06 07:07:01;;;;;;;13.57;5.43;;;;;;;;;;5104131;28;20023;-68
2023/04/06 07:09:26;;;;;;;12.32;4.43;;;;;;;;;;5095910;28;20519;-69
2023/04/06 07:11:51;;;;;;;9.02;3.83;;;;;;;;;;5108737;28;20562;-68
2023/04/06 07:14:17;;;;;;;12.50;4.47;;;;;;;;;;5110975;28;20102;-68
2023/04/06 07:16:44;;;;;;;13.07;4.40;;;;;;;;;;5110598;28;20471;-68
2023/04/06 07:19:10;;;;;;;9.65;4.50;;;;;;;;;;5110513;28;20154;-68
2023/04/06 07:21:35;;;;;;;8.38;4.35;;;;;;;;;;5111115;28;20524;-68
2023/04/06 07:24:01;;;;;;;11.18;4.47;;;;;;;;;;5111126;28;20028;-69
2023/04/06 07:26:27;;;;;;;11.30;4.38;;;;;;;;;;5107628;28;20029;-69
2023/04/06 07:28:52;;;;;;;9.55;4.00;;;;;;;;;;5111082;28;20012;-67
2023/04/06 07:31:17;;;;;;;22.83;4.82;;;;;;;;;;5084462;28;20370;-67
2023/04/06 07:33:42;;;;;;;10.57;4.97;;;;;;;;;;5097040;28;20024;-68
2023/04/06 07:36:08;;;;;;;8.88;4.75;;;;;;;;;;5110079;28;20024;-68
2023/04/06 07:38:33;;;;;;;8.10;4.30;;;;;;;;;;5091380;28;20024;-70
2023/04/06 07:40:58;;;;;;;9.98;4.03;;;;;;;;;;5213949;22;20260;-69
2023/04/06 07:43:23;;;;;;;9.00;3.80;;;;;;;;;;5130115;27;20484;-68
2023/04/06 07:45:49;;;;;;;11.50;4.47;;;;;;;;;;5129698;27;20027;-70
2023/04/06 07:48:14;;;;;;;8.93;4.05;;;;;;;;;;5125812;27;20015;-69
2023/04/06 07:50:40;;;;;;;11.82;4.38;;;;;;;;;;5128598;27;20019;-69
2023/04/06 07:53:05;;;;;;;14.63;4.85;;;;;;;;;;5108902;28;20019;-68
2023/04/06 07:55:30;;;;;;;10.63;4.82;;;;;;;;;;5109041;28;20023;-70
2023/04/06 07:57:55;;;;;;;9.35;4.20;;;;;;;;;;5107592;28;20075;-67
2023/04/06 08:00:21;;;;;;;10.93;4.90;;;;;;;;;;5107912;28;20171;-69
2023/04/06 08:02:46;;;;;;;10.55;4.50;;;;;;;;;;5108193;28;20060;-66
2023/04/06 08:05:11;;;;;;;11.15;5.05;;;;;;;;;;5107889;28;20581;-69
2023/04/06 08:07:37;;;;;;;12.93;5.38;;;;;;;;;;5106647;28;20599;-67
2023/04/06 08:10:02;;;;;;;17.63;5.03;;;;;;;;;;5107468;28;20543;-69
2023/04/06 08:12:27;;;;;;;9.63;5.30;;;;;;;;;;5108025;28;20129;-66
2023/04/06 08:14:53;;;;;;;8.75;4.43;;;;;;;;;;5108862;28;20031;-69
2023/04/06 08:17:18;;;;;;;8.90;4.53;;;;;;;;;;5089720;28;20397;-70
2023/04/06 08:19:44;;;;;;;9.20;4.50;;;;;;;;;;5108881;28;20091;-71
2023/04/06 08:22:09;;;;;;;9.23;4.72;;;;;;;;;;5108318;28;20451;-68
2023/04/06 08:24:34;;;;;;;11.68;4.18;;;;;;;;;;5107490;28;20019;-67
2023/04/06 08:27:00;;;;;;;10.20;4.47;;;;;;;;;;5107320;28;20130;-70
2023/04/06 08:29:25;;;;;;;9.00;4.53;;;;;;;;;;5108297;28;20498;-69
2023/04/06 08:31:50;;;;;;;12.57;5.15;;;;;;;;;;5107683;28;20019;-71
2023/04/06 08:34:16;;;;;;;8.93;4.60;;;;;;;;;;5108364;28;20023;-70
2023/04/06 08:36:41;;;;;;;12.90;5.97;;;;;;;;;;5107099;28;20064;-70
2023/04/06 08:39:06;;;;;;;16.58;5.57;;;;;;;;;;5107488;28;20439;-67
2023/04/06 08:41:32;;;;;;;10.43;5.28;;;;;;;;;;5107847;28;20032;-70
2023/04/06 08:44:01;;;;;;;10.43;4.90;;;;;;;;;;5107541;28;20016;-70
2023/04/06 08:46:29;;;;;;;;;;;;;;;;;;5099814;28;20481;-69
2023/04/06 08:48:54;;;;;;;15.70;4.23;;;;;;;;;;5107274;28;19918;-68
2023/04/06 08:51:20;;;;;;;16.13;5.03;;;;;;;;;;5104397;28;20272;-69
2023/04/06 08:53:46;;;;;;;11.30;5.32;;;;;;;;;;5100243;28;20019;-68
2023/04/06 08:56:11;;;;;;;17.67;5.28;;;;;;;;;;5099829;28;20020;-69
2023/04/06 08:58:38;;;;;;;8.73;4.50;;;;;;;;;;5107380;28;20450;-69
2023/04/06 09:01:07;;;;;;;19.95;5.47;;;;;;;;;;5107445;28;20103;-66
2023/04/06 09:03:33;;;;;;;9.15;5.13;;;;;;;;;;5106893;28;20198;-70
2023/04/06 09:05:58;;;;;;;9.00;4.35;;;;;;;;;;5086208;28;20051;-67
2023/04/06 09:08:24;;;;;;;13.50;5.18;;;;;;;;;;5104586;28;20019;-68
2023/04/06 09:10:51;;;;;;;10.93;5.07;;;;;;;;;;5107276;28;20020;-69
2023/04/06 09:13:17;;;;;;;10.05;4.72;;;;;;;;;;5107356;28;20022;-67
2023/04/06 09:15:42;;;;;;;22.88;5.60;;;;;;;;;;5107676;28;20028;-68
2023/04/06 09:18:08;;;;;;;13.18;4.75;;;;;;;;;;5106610;28;20051;-68
2023/04/06 09:20:33;;;;;;;25.42;5.47;;;;;;;;;;5107491;28;20077;-67
2023/04/06 09:22:59;;;;;;;9.45;4.68;;;;;;;;;;5107474;28;20027;-70
2023/04/06 09:25:26;;;;;;;15.95;4.80;;;;;;;;;;5107711;28;20545;-69
2023/04/06 09:27:59;;;;;;;9.43;4.78;;;;;;;;;;5105806;28;20028;-70
2023/04/06 09:30:24;;;;;;;7.80;4.47;;;;;;;;;;5107139;28;20030;-68
2023/04/06 09:32:53;;;;;;;12.32;4.70;;;;;;;;;;5104287;28;20092;-68
2023/04/06 09:35:22;;;;;;;9.05;4.57;;;;;;;;;;5107074;28;20817;-69
2023/04/06 09:37:49;;;;;;;9.02;4.72;;;;;;;;;;5107016;28;20029;-69
2023/04/06 09:40:17;;;;;;;9.05;4.53;;;;;;;;;;5107309;28;20088;-69
2023/04/06 09:42:42;;;;;;;9.27;4.88;;;;;;;;;;5108440;28;20054;-70
2023/04/06 09:45:08;;;;;;;11.48;4.70;;;;;;;;;;5106669;28;20404;-68
2023/04/06 09:47:35;;;;;;;13.27;4.63;;;;;;;;;;5108451;28;20015;-69
2023/04/06 09:50:01;;;;;;;13.40;5.43;;;;;;;;;;5109578;28;20433;-69
2023/04/06 09:52:37;;;;;;;11.95;4.90;;;;;;;;;;5101897;28;20023;-68
2023/04/06 09:55:04;;;;;;;10.75;4.78;;;;;;;;;;5109242;28;20119;-69
2023/04/06 09:57:32;;;;;;;10.60;4.75;;;;;;;;;;5105782;28;20635;-68
2023/04/06 10:00:10;;;;;;;10.95;5.10;;;;;;;;;;5111639;27;20156;-66
2023/04/06 10:02:56;;;;;;;17.27;5.18;;;;;;;;;;5107827;28;20016;-70
2023/04/06 10:05:21;;;;;;;13.20;5.03;;;;;;;;;;5110548;28;20069;-68
2023/04/06 10:07:48;;;;;;;6.28;3.42;;;;;;;;;;5093506;28;20380;-68
2023/04/06 10:10:14;;;;;;;6.63;3.70;;;;;;;;;;5106912;28;20635;-69
2023/04/06 10:12:40;;;;;;;7.82;3.88;;;;;;;;;;5110950;28;20342;-70
2023/04/06 10:15:06;;;;;;;11.05;4.10;;;;;;;;;;5110628;28;20022;-70
2023/04/06 10:17:31;;;;;;;9.52;4.25;;;;;;;;;;5109390;28;20106;-68
2023/04/06 10:20:03;;;;;;;9.00;4.32;;;;;;;;;;5111692;28;20016;-70
2023/04/06 10:22:52;;;;;;;9.75;4.55;;;;;;;;;;5109508;28;20024;-68
2023/04/06 10:25:17;;;;;;;;;;;;;;;;;;5108335;28;20381;-69
2023/04/06 10:27:42;;;;;;;7.13;3.78;;;;;;;;;;5109616;28;19995;-68
2023/04/06 10:30:08;;;;;;;9.57;3.92;;;;;;;;;;5109911;28;20030;-68
2023/04/06 10:32:33;;;;;;;11.25;4.63;;;;;;;;;;5109335;28;20020;-69
2023/04/06 10:35:12;;;;;;;9.32;4.40;;;;;;;;;;5106962;28;20055;-70
2023/04/06 10:38:07;;;;;;;8.75;4.30;;;;;;;;;;5107476;28;20027;-68
2023/04/06 10:40:35;;;;;;;11.15;4.07;;;;;;;;;;5100433;28;20043;-70
2023/04/06 10:43:09;;;;;;;7.72;4.05;;;;;;;;;;5109038;28;20035;-67
2023/04/06 10:45:35;;;;;;;9.25;3.75;;;;;;;;;;5109307;28;20023;-68
2023/04/06 10:48:00;;;;;;;9.90;4.25;;;;;;;;;;5108448;28;20035;-69
2023/04/06 10:50:27;;;;;;;7.63;4.15;;;;;;;;;;5109658;28;20419;-68
2023/04/06 10:53:02;;;;;;;8.30;4.18;;;;;;;;;;5090295;28;20077;-67
2023/04/06 10:55:28;;;;;;;12.70;3.92;;;;;;;;;;5101658;28;20031;-68
2023/04/06 10:57:53;;;;;;;7.75;4.10;;;;;;;;;;5099263;28;20016;-67
2023/04/06 11:00:19;;;;;;;8.77;4.28;;;;;;;;;;5101680;28;20033;-67
2023/04/06 11:02:45;;;;;;;9.57;4.68;;;;;;;;;;5102140;28;20425;-68
2023/04/06 11:05:11;;;;;;;7.32;3.92;;;;;;;;;;5101515;28;20034;-68
2023/04/06 11:07:36;;;;;;;9.07;4.15;;;;;;;;;;5100949;28;20049;-68
2023/04/06 11:10:02;;;;;;;8.02;3.53;;;;;;;;;;5101155;28;20055;-68
2023/04/06 11:12:27;;;;;;;10.65;4.13;;;;;;;;;;5101742;28;20084;-68
2023/04/06 11:14:54;;;;;;;8.50;4.10;;;;;;;;;;5101998;28;20469;-68
2023/04/06 11:17:25;;;;;;;8.63;3.63;;;;;;;;;;5082049;28;20047;-67
2023/04/06 11:19:50;;;;;;;8.88;4.35;;;;;;;;;;5092119;28;20094;-69
2023/04/06 11:22:16;;;;;;;10.00;4.22;;;;;;;;;;5102180;28;20114;-68
2023/04/06 11:24:41;;;;;;;9.38;4.22;;;;;;;;;;5101954;28;20153;-68
2023/04/06 11:27:07;;;;;;;9.40;4.38;;;;;;;;;;5100984;28;20860;-66
2023/04/06 11:29:33;;;;;;;8.35;4.38;;;;;;;;;;5101206;28;20020;-68
2023/04/06 11:32:00;;;;;;;9.60;3.97;;;;;;;;;;5083558;28;20029;-69
2023/04/06 11:34:27;;;;;;;7.22;3.65;;;;;;;;;;5101075;28;20027;-68
2023/04/06 11:36:57;;;;;;;7.60;4.20;;;;;;;;;;5100182;28;20031;-66
2023/04/06 11:39:23;;;;;;;6.45;3.58;;;;;;;;;;5100100;28;20020;-69
2023/04/06 11:41:49;;;;;;;8.82;4.28;;;;;;;;;;5100642;28;20091;-68
2023/04/06 11:44:15;;;;;;;10.48;4.32;;;;;;;;;;5085820;28;20731;-68
2023/04/06 11:46:40;;;;;;;9.32;4.22;;;;;;;;;;5106872;28;20561;-68
2023/04/06 11:49:05;;;;;;;8.13;3.83;;;;;;;;;;5107958;28;20015;-67
2023/04/06 11:51:35;;;;;;;10.48;4.85;;;;;;;;;;5108627;28;20479;-69
2023/04/06 11:54:00;;;;;;;10.98;4.78;;;;;;;;;;5104902;28;20019;-68
2023/04/06 11:56:29;;;;;;;9.30;4.15;;;;;;;;;;5107381;28;20077;-72
2023/04/06 11:58:54;;;;;;;;;;;;;;;;;;5108276;28;20024;-68
2023/04/06 12:01:19;;;;;;;11.50;4.23;;;;;;;;;;5108665;28;19911;-68
2023/04/06 12:03:45;;;;;;;6.68;3.60;;;;;;;;;;5106177;28;20363;-69
2023/04/06 12:06:10;;;;;;;9.85;4.10;;;;;;;;;;5107839;28;20038;-68
2023/04/06 12:08:36;;;;;;;10.07;3.90;;;;;;;;;;5107542;28;20019;-68
2023/04/06 12:11:02;;;;;;;8.35;4.20;;;;;;;;;;5108416;28;20197;-73
2023/04/06 12:13:27;;;;;;;7.82;3.80;;;;;;;;;;5108379;28;20016;-70
2023/04/06 12:15:52;;;;;;;10.23;4.10;;;;;;;;;;5108398;28;20579;-68
2023/04/06 12:18:18;;;;;;;9.10;4.10;;;;;;;;;;5107230;28;20184;-70
2023/04/06 12:20:43;;;;;;;7.72;3.90;;;;;;;;;;5108069;28;20024;-66
2023/04/06 12:23:08;;;;;;;10.25;4.10;;;;;;;;;;5108300;28;20096;-69
2023/04/06 12:25:34;;;;;;;8.52;4.03;;;;;;;;;;5106845;28;20116;-68
2023/04/06 12:28:00;;;;;;;10.25;4.00;;;;;;;;;;5101717;28;20019;-67
2023/04/06 12:30:25;;;;;;;7.38;3.75;;;;;;;;;;5107467;28;20022;-67
2023/04/06 12:32:50;;;;;;;9.45;3.80;;;;;;;;;;5096483;28;20451;-69
2023/04/06 12:35:16;;;;;;;8.25;4.00;;;;;;;;;;5106443;28;20035;-67
2023/04/06 12:37:42;;;;;;;8.45;3.83;;;;;;;;;;5106400;28;20020;-71
2023/04/06 12:40:07;;;;;;;8.15;3.55;;;;;;;;;;5107215;28;20055;-66
2023/04/06 12:42:32;;;;;;;8.48;3.63;;;;;;;;;;5102967;28;20576;-65
2023/04/06 12:44:58;;;;;;;7.95;3.78;;;;;;;;;;5103509;28;20035;-69
2023/04/06 12:47:23;;;;;;;9.93;3.88;;;;;;;;;;5090336;28;20024;-67
2023/04/06 12:49:49;;;;;;;12.52;4.43;;;;;;;;;;5105459;28;20030;-67
2023/04/06 12:52:15;;;;;;;9.52;3.80;;;;;;;;;;5106683;28;20024;-69
2023/04/06 12:54:41;;;;;;;6.43;3.75;;;;;;;;;;5106830;28;20091;-67
2023/04/06 12:57:06;;;;;;;7.75;3.97;;;;;;;;;;5106698;28;20019;-69
2023/04/06 12:59:35;;;;;;;11.65;4.30;;;;;;;;;;5105347;28;21929;-66
2023/04/06 13:02:00;;;;;;;9.32;4.22;;;;;;;;;;5101769;28;20069;-67
2023/04/06 13:04:26;;;;;;;8.02;4.07;;;;;;;;;;5087222;28;20023;-68
2023/04/06 13:06:51;;;;;;;17.48;4.07;;;;;;;;;;5106468;28;20016;-67
2023/04/06 13:09:16;;;;;;;10.20;4.55;;;;;;;;;;5102778;28;20023;-68
2023/04/06 13:11:42;;;;;;;14.90;3.78;;;;;;;;;;5106649;28;20027;-69
2023/04/06 13:14:07;;;;;;;6.18;3.33;;;;;;;;;;5106720;28;20023;-70
2023/04/06 13:16:32;;;;;;;8.18;3.67;;;;;;;;;;5106730;28;20047;-65
2023/04/06 13:18:57;;;;;;;13.82;4.20;;;;;;;;;;5111611;28;20019;-68
2023/04/06 13:21:23;;;;;;;11.55;4.22;;;;;;;;;;5111143;28;20452;-69
2023/04/06 13:23:48;;;;;;;9.50;3.60;;;;;;;;;;5107900;28;20027;-68
2023/04/06 13:26:14;;;;;;;8.82;4.03;;;;;;;;;;5108408;28;20608;-65
2023/04/06 13:28:40;;;;;;;6.75;3.75;;;;;;;;;;5107040;28;20050;-65
2023/04/06 13:31:06;;;;;;;14.27;4.03;;;;;;;;;;5111482;28;20076;-69
2023/04/06 13:33:31;;;;;;;7.80;3.80;;;;;;;;;;5109299;28;20457;-66
2023/04/06 13:35:57;;;;;;;9.15;4.10;;;;;;;;;;5111520;28;20015;-69
2023/04/06 13:38:24;;;;;;;7.30;3.85;;;;;;;;;;5110804;28;20122;-68
2023/04/06 13:40:55;;;;;;;8.93;3.95;;;;;;;;;;5111720;28;20012;-66
2023/04/06 13:43:21;;;;;;;12.30;5.05;;;;;;;;;;5111104;28;20066;-65
2023/04/06 13:45:50;;;;;;;20.23;4.97;;;;;;;;;;5110958;28;20043;-67
2023/04/06 13:48:15;;;;;;;10.18;4.05;;;;;;;;;;5100701;28;20077;-70
2023/04/06 13:50:40;;;;;;;12.75;3.83;;;;;;;;;;5110924;28;20068;-68
2023/04/06 13:53:05;;;;;;;10.50;4.47;;;;;;;;;;5110231;28;20016;-68
2023/04/06 13:55:31;;;;;;;7.15;4.13;;;;;;;;;;5110876;28;20012;-68
2023/04/06 13:57:56;;;;;;;7.88;3.80;;;;;;;;;;5109128;28;20031;-69
2023/04/06 14:00:21;;;;;;;11.60;5.63;;;;;;;;;;5110574;28;20064;-69
2023/04/06 14:02:47;;;;;;;8.48;4.30;;;;;;;;;;5110592;28;20113;-70
2023/04/06 14:05:12;;;;;;;11.25;4.57;;;;;;;;;;5110572;28;20019;-68
2023/04/06 14:07:37;;;;;;;7.32;4.18;;;;;;;;;;5108332;28;20184;-69
2023/04/06 14:10:03;;;;;;;7.53;3.72;;;;;;;;;;5111430;28;20023;-67
2023/04/06 14:12:28;;;;;;;11.85;4.15;;;;;;;;;;5109473;28;20102;-70
2023/04/06 14:14:53;;;;;;;10.48;4.25;;;;;;;;;;5110599;28;20019;-67
2023/04/06 14:17:18;;;;;;;13.55;4.63;;;;;;;;;;5109611;28;20035;-69
2023/04/06 14:19:44;;;;;;;10.20;4.07;;;;;;;;;;5111057;28;20035;-68
2023/04/06 14:22:10;;;;;;;8.27;4.55;;;;;;;;;;5110104;28;20023;-67
2023/04/06 14:24:35;;;;;;;7.63;3.97;;;;;;;;;;5090513;28;20039;-68
2023/04/06 14:27:01;;;;;;;9.20;4.30;;;;;;;;;;5109440;28;20024;-68